sensor_id;sensor_type;location;lat;lon;timestamp;temperature;humidity
54642;DHT22;40536;53.194;5.728;2023-04-27T00:01:34;2.20;99.90
54642;DHT22;40536;53.194;5.728;2023-04-27T00:03:59;2.20;99.90
54642;DHT22;40536;53.194;5.728;2023-04-27T00:06:26;2.10;99.90
54642;DHT22;40536;53.194;5.728;2023-04-27T00:08:51;2.10;99.90
54642;DHT22;40536;53.194;5.728;2023-04-27T00:11:17;2.10;99.90
54642;DHT22;40536;53.194;5.728;2023-04-27T00:13:43;2.10;99.90
54642;DHT22;40536;53.194;5.728;2023-04-27T00:16:08;2.20;99.90
54642;DHT22;40536;53.194;5.728;2023-04-27T00:18:34;2.20;99.90
54642;DHT22;40536;53.194;5.728;2023-04-27T00:21:01;3.70;99.90
54642;DHT22;40536;53.194;5.728;2023-04-27T00:23:26;2.20;99.90
54642;DHT22;40536;53.194;5.728;2023-04-27T00:25:52;2.20;99.90
54642;DHT22;40536;53.194;5.728;2023-04-27T00:28:18;2.20;99.90
54642;DHT22;40536;53.194;5.728;2023-04-27T00:30:43;2.20;99.90
54642;DHT22;40536;53.194;5.728;2023-04-27T00:33:09;2.10;99.90
54642;DHT22;40536;53.194;5.728;2023-04-27T00:35:41;3.30;99.90
54642;DHT22;40536;53.194;5.728;2023-04-27T00:38:07;2.10;99.90
54642;DHT22;40536;53.194;5.728;2023-04-27T00:40:34;2.00;99.90
54642;DHT22;40536;53.194;5.728;2023-04-27T00:42:59;2.10;99.90
54642;DHT22;40536;53.194;5.728;2023-04-27T00:45:25;2.10;99.90
54642;DHT22;40536;53.194;5.728;2023-04-27T00:47:51;2.10;99.90
54642;DHT22;40536;53.194;5.728;2023-04-27T00:50:22;2.20;99.90
54642;DHT22;40536;53.194;5.728;2023-04-27T00:52:51;2.20;99.90
54642;DHT22;40536;53.194;5.728;2023-04-27T00:55:16;2.10;99.90
54642;DHT22;40536;53.194;5.728;2023-04-27T00:57:42;3.20;99.90
54642;DHT22;40536;53.194;5.728;2023-04-27T01:00:08;2.10;99.90
54642;DHT22;40536;53.194;5.728;2023-04-27T01:02:35;2.10;99.90
54642;DHT22;40536;53.194;5.728;2023-04-27T01:05:02;2.00;99.90
54642;DHT22;40536;53.194;5.728;2023-04-27T01:07:28;2.00;99.90
54642;DHT22;40536;53.194;5.728;2023-04-27T01:09:54;2.00;99.90
54642;DHT22;40536;53.194;5.728;2023-04-27T01:12:19;2.00;99.90
54642;DHT22;40536;53.194;5.728;2023-04-27T01:14:45;2.10;99.90
54642;DHT22;40536;53.194;5.728;2023-04-27T01:17:11;2.00;99.90
54642;DHT22;40536;53.194;5.728;2023-04-27T01:19:36;2.10;99.90
54642;DHT22;40536;53.194;5.728;2023-04-27T01:22:02;2.10;99.90
54642;DHT22;40536;53.194;5.728;2023-04-27T01:24:28;2.20;99.90
54642;DHT22;40536;53.194;5.728;2023-04-27T01:26:53;2.20;99.90
54642;DHT22;40536;53.194;5.728;2023-04-27T01:29:19;2.20;99.90
54642;DHT22;40536;53.194;5.728;2023-04-27T01:31:45;2.30;99.90
54642;DHT22;40536;53.194;5.728;2023-04-27T01:34:11;2.30;99.90
54642;DHT22;40536;53.194;5.728;2023-04-27T01:36:38;2.40;99.90
54642;DHT22;40536;53.194;5.728;2023-04-27T01:39:04;2.60;99.90
54642;DHT22;40536;53.194;5.728;2023-04-27T01:41:37;3.60;99.90
54642;DHT22;40536;53.194;5.728;2023-04-27T01:44:03;2.50;99.90
54642;DHT22;40536;53.194;5.728;2023-04-27T01:46:29;2.60;99.90
54642;DHT22;40536;53.194;5.728;2023-04-27T01:48:54;4.20;99.90
54642;DHT22;40536;53.194;5.728;2023-04-27T01:51:20;2.70;99.90
54642;DHT22;40536;53.194;5.728;2023-04-27T01:53:46;4.40;99.90
54642;DHT22;40536;53.194;5.728;2023-04-27T01:56:11;2.70;99.90
54642;DHT22;40536;53.194;5.728;2023-04-27T01:58:37;2.80;99.90
54642;DHT22;40536;53.194;5.728;2023-04-27T02:01:03;2.90;99.90
54642;DHT22;40536;53.194;5.728;2023-04-27T02:03:28;4.20;99.90
54642;DHT22;40536;53.194;5.728;2023-04-27T02:05:54;3.00;99.90
54642;DHT22;40536;53.194;5.728;2023-04-27T02:08:19;3.00;99.90
54642;DHT22;40536;53.194;5.728;2023-04-27T02:10:45;3.10;99.90
54642;DHT22;40536;53.194;5.728;2023-04-27T02:13:11;4.10;99.90
54642;DHT22;40536;53.194;5.728;2023-04-27T02:15:36;3.10;99.90
54642;DHT22;40536;53.194;5.728;2023-04-27T02:18:02;3.20;99.90
54642;DHT22;40536;53.194;5.728;2023-04-27T02:20:29;3.30;99.90
54642;DHT22;40536;53.194;5.728;2023-04-27T02:22:55;3.30;99.90
54642;DHT22;40536;53.194;5.728;2023-04-27T02:25:21;3.30;99.90
54642;DHT22;40536;53.194;5.728;2023-04-27T02:27:47;4.70;99.90
54642;DHT22;40536;53.194;5.728;2023-04-27T02:30:13;3.30;99.90
54642;DHT22;40536;53.194;5.728;2023-04-27T02:32:39;3.30;99.90
54642;DHT22;40536;53.194;5.728;2023-04-27T02:35:06;3.30;99.90
54642;DHT22;40536;53.194;5.728;2023-04-27T02:37:34;3.30;99.90
54642;DHT22;40536;53.194;5.728;2023-04-27T02:39:59;4.50;99.90
54642;DHT22;40536;53.194;5.728;2023-04-27T02:42:25;3.40;99.90
54642;DHT22;40536;53.194;5.728;2023-04-27T02:44:51;4.70;99.90
54642;DHT22;40536;53.194;5.728;2023-04-27T02:47:16;3.40;99.90
54642;DHT22;40536;53.194;5.728;2023-04-27T02:49:42;3.40;99.90
54642;DHT22;40536;53.194;5.728;2023-04-27T02:52:08;3.40;99.90
54642;DHT22;40536;53.194;5.728;2023-04-27T02:54:34;3.40;99.90
54642;DHT22;40536;53.194;5.728;2023-04-27T02:57:00;3.40;99.90
54642;DHT22;40536;53.194;5.728;2023-04-27T02:59:26;4.90;99.90
54642;DHT22;40536;53.194;5.728;2023-04-27T03:01:52;3.40;99.90
54642;DHT22;40536;53.194;5.728;2023-04-27T03:04:17;3.40;99.90
54642;DHT22;40536;53.194;5.728;2023-04-27T03:06:43;4.80;99.90
54642;DHT22;40536;53.194;5.728;2023-04-27T03:09:09;3.30;99.90
54642;DHT22;40536;53.194;5.728;2023-04-27T03:11:38;3.30;99.90
54642;DHT22;40536;53.194;5.728;2023-04-27T03:14:04;4.20;99.90
54642;DHT22;40536;53.194;5.728;2023-04-27T03:16:33;3.30;99.90
54642;DHT22;40536;53.194;5.728;2023-04-27T03:18:59;4.80;99.90
54642;DHT22;40536;53.194;5.728;2023-04-27T03:21:25;3.20;99.90
54642;DHT22;40536;53.194;5.728;2023-04-27T03:23:51;3.20;99.90
54642;DHT22;40536;53.194;5.728;2023-04-27T03:26:17;3.10;99.90
54642;DHT22;40536;53.194;5.728;2023-04-27T03:28:43;3.00;99.90
54642;DHT22;40536;53.194;5.728;2023-04-27T03:31:10;2.90;99.90
54642;DHT22;40536;53.194;5.728;2023-04-27T03:33:37;2.80;99.90
54642;DHT22;40536;53.194;5.728;2023-04-27T03:36:05;2.70;99.90
54642;DHT22;40536;53.194;5.728;2023-04-27T03:38:31;2.60;99.90
54642;DHT22;40536;53.194;5.728;2023-04-27T03:40:57;2.50;99.90
54642;DHT22;40536;53.194;5.728;2023-04-27T03:43:24;2.40;99.90
54642;DHT22;40536;53.194;5.728;2023-04-27T03:45:50;2.40;99.90
54642;DHT22;40536;53.194;5.728;2023-04-27T03:48:16;2.40;99.90
54642;DHT22;40536;53.194;5.728;2023-04-27T03:50:43;2.30;99.90
54642;DHT22;40536;53.194;5.728;2023-04-27T03:53:09;2.30;99.90
54642;DHT22;40536;53.194;5.728;2023-04-27T03:55:39;2.20;99.90
54642;DHT22;40536;53.194;5.728;2023-04-27T03:58:05;2.20;99.90
54642;DHT22;40536;53.194;5.728;2023-04-27T04:00:32;2.10;99.90
54642;DHT22;40536;53.194;5.728;2023-04-27T04:02:58;2.10;99.90
54642;DHT22;40536;53.194;5.728;2023-04-27T04:05:23;2.00;99.90
54642;DHT22;40536;53.194;5.728;2023-04-27T04:07:49;2.00;99.90
54642;DHT22;40536;53.194;5.728;2023-04-27T04:10:15;1.90;99.90
54642;DHT22;40536;53.194;5.728;2023-04-27T04:12:40;1.90;99.90
54642;DHT22;40536;53.194;5.728;2023-04-27T04:15:06;1.90;99.90
54642;DHT22;40536;53.194;5.728;2023-04-27T04:17:32;1.80;99.90
54642;DHT22;40536;53.194;5.728;2023-04-27T04:19:59;3.20;99.90
54642;DHT22;40536;53.194;5.728;2023-04-27T04:22:25;1.80;99.90
54642;DHT22;40536;53.194;5.728;2023-04-27T04:24:50;1.80;99.90
54642;DHT22;40536;53.194;5.728;2023-04-27T04:27:16;1.80;99.90
54642;DHT22;40536;53.194;5.728;2023-04-27T04:29:42;1.80;99.90
54642;DHT22;40536;53.194;5.728;2023-04-27T04:32:08;1.80;99.90
54642;DHT22;40536;53.194;5.728;2023-04-27T04:34:34;1.80;99.90
54642;DHT22;40536;53.194;5.728;2023-04-27T04:37:01;3.40;99.90
54642;DHT22;40536;53.194;5.728;2023-04-27T04:39:33;1.80;99.90
54642;DHT22;40536;53.194;5.728;2023-04-27T04:41:58;1.90;99.90
54642;DHT22;40536;53.194;5.728;2023-04-27T04:44:24;1.80;99.90
54642;DHT22;40536;53.194;5.728;2023-04-27T04:46:50;1.90;99.90
54642;DHT22;40536;53.194;5.728;2023-04-27T04:49:16;1.90;99.90
54642;DHT22;40536;53.194;5.728;2023-04-27T04:51:42;1.90;99.90
54642;DHT22;40536;53.194;5.728;2023-04-27T04:54:08;2.00;99.90
54642;DHT22;40536;53.194;5.728;2023-04-27T04:56:34;2.10;99.90
54642;DHT22;40536;53.194;5.728;2023-04-27T04:59:00;2.20;99.90
54642;DHT22;40536;53.194;5.728;2023-04-27T05:01:26;2.30;99.90
54642;DHT22;40536;53.194;5.728;2023-04-27T05:03:52;2.40;99.90
54642;DHT22;40536;53.194;5.728;2023-04-27T05:06:18;3.50;99.90
54642;DHT22;40536;53.194;5.728;2023-04-27T05:08:43;3.90;99.90
54642;DHT22;40536;53.194;5.728;2023-04-27T05:11:09;2.70;99.90
54642;DHT22;40536;53.194;5.728;2023-04-27T05:13:35;2.80;99.90
54642;DHT22;40536;53.194;5.728;2023-04-27T05:16:06;3.00;99.90
54642;DHT22;40536;53.194;5.728;2023-04-27T05:18:32;3.20;99.90
54642;DHT22;40536;53.194;5.728;2023-04-27T05:20:58;3.50;99.90
54642;DHT22;40536;53.194;5.728;2023-04-27T05:23:24;3.70;99.90
54642;DHT22;40536;53.194;5.728;2023-04-27T05:25:49;3.90;99.90
54642;DHT22;40536;53.194;5.728;2023-04-27T05:28:15;4.00;99.90
54642;DHT22;40536;53.194;5.728;2023-04-27T05:30:41;4.20;99.90
54642;DHT22;40536;53.194;5.728;2023-04-27T05:33:06;5.40;99.90
54642;DHT22;40536;53.194;5.728;2023-04-27T05:35:32;5.80;99.90
54642;DHT22;40536;53.194;5.728;2023-04-27T05:37:58;4.80;99.90
54642;DHT22;40536;53.194;5.728;2023-04-27T05:40:24;6.30;99.90
54642;DHT22;40536;53.194;5.728;2023-04-27T05:42:50;6.60;99.90
54642;DHT22;40536;53.194;5.728;2023-04-27T05:45:15;6.60;99.90
54642;DHT22;40536;53.194;5.728;2023-04-27T05:47:41;5.80;99.90
54642;DHT22;40536;53.194;5.728;2023-04-27T05:50:07;6.60;99.90
54642;DHT22;40536;53.194;5.728;2023-04-27T05:52:33;6.50;99.90
54642;DHT22;40536;53.194;5.728;2023-04-27T05:54:59;6.80;99.90
54642;DHT22;40536;53.194;5.728;2023-04-27T05:57:25;7.00;99.90
54642;DHT22;40536;53.194;5.728;2023-04-27T05:59:51;7.30;99.90
54642;DHT22;40536;53.194;5.728;2023-04-27T06:02:17;7.60;99.90
54642;DHT22;40536;53.194;5.728;2023-04-27T06:04:44;9.00;99.90
54642;DHT22;40536;53.194;5.728;2023-04-27T06:07:12;8.20;99.90
54642;DHT22;40536;53.194;5.728;2023-04-27T06:09:38;8.50;99.90
54642;DHT22;40536;53.194;5.728;2023-04-27T06:12:04;9.00;99.90
54642;DHT22;40536;53.194;5.728;2023-04-27T06:14:32;9.00;99.90
54642;DHT22;40536;53.194;5.728;2023-04-27T06:16:57;9.30;99.90
54642;DHT22;40536;53.194;5.728;2023-04-27T06:19:23;9.50;99.90
54642;DHT22;40536;53.194;5.728;2023-04-27T06:21:49;10.00;99.90
54642;DHT22;40536;53.194;5.728;2023-04-27T06:24:16;9.90;99.90
54642;DHT22;40536;53.194;5.728;2023-04-27T06:26:41;10.20;99.90
54642;DHT22;40536;53.194;5.728;2023-04-27T06:29:07;10.60;99.90
54642;DHT22;40536;53.194;5.728;2023-04-27T06:31:33;10.70;99.90
54642;DHT22;40536;53.194;5.728;2023-04-27T06:33:59;11.10;99.90
54642;DHT22;40536;53.194;5.728;2023-04-27T06:36:31;11.40;99.90
54642;DHT22;40536;53.194;5.728;2023-04-27T06:38:56;11.50;99.90
54642;DHT22;40536;53.194;5.728;2023-04-27T06:41:24;11.70;99.90
54642;DHT22;40536;53.194;5.728;2023-04-27T06:43:50;12.00;99.90
54642;DHT22;40536;53.194;5.728;2023-04-27T06:46:16;12.20;99.90
54642;DHT22;40536;53.194;5.728;2023-04-27T06:48:42;12.20;99.90
54642;DHT22;40536;53.194;5.728;2023-04-27T06:51:08;12.20;99.90
54642;DHT22;40536;53.194;5.728;2023-04-27T06:53:33;12.60;99.90
54642;DHT22;40536;53.194;5.728;2023-04-27T06:55:59;12.70;99.90
54642;DHT22;40536;53.194;5.728;2023-04-27T06:58:25;12.90;99.90
54642;DHT22;40536;53.194;5.728;2023-04-27T07:00:54;13.00;99.90
54642;DHT22;40536;53.194;5.728;2023-04-27T07:03:20;13.30;99.90
54642;DHT22;40536;53.194;5.728;2023-04-27T07:05:49;13.60;99.90
54642;DHT22;40536;53.194;5.728;2023-04-27T07:08:16;13.70;99.90
54642;DHT22;40536;53.194;5.728;2023-04-27T07:10:41;13.70;99.90
54642;DHT22;40536;53.194;5.728;2023-04-27T07:13:07;13.70;99.90
54642;DHT22;40536;53.194;5.728;2023-04-27T07:15:33;13.80;99.90
54642;DHT22;40536;53.194;5.728;2023-04-27T07:17:58;13.80;99.90
54642;DHT22;40536;53.194;5.728;2023-04-27T07:20:24;14.20;99.90
54642;DHT22;40536;53.194;5.728;2023-04-27T07:22:50;14.30;99.90
54642;DHT22;40536;53.194;5.728;2023-04-27T07:25:16;14.70;99.90
54642;DHT22;40536;53.194;5.728;2023-04-27T07:27:41;14.70;99.90
54642;DHT22;40536;53.194;5.728;2023-04-27T07:30:07;14.50;99.90
54642;DHT22;40536;53.194;5.728;2023-04-27T07:32:39;14.80;99.90
54642;DHT22;40536;53.194;5.728;2023-04-27T07:35:05;14.80;99.90
54642;DHT22;40536;53.194;5.728;2023-04-27T07:37:31;15.20;99.90
54642;DHT22;40536;53.194;5.728;2023-04-27T07:39:56;15.50;99.90
54642;DHT22;40536;53.194;5.728;2023-04-27T07:42:25;15.70;99.90
54642;DHT22;40536;53.194;5.728;2023-04-27T07:44:51;15.90;99.90
54642;DHT22;40536;53.194;5.728;2023-04-27T07:47:16;16.30;99.90
54642;DHT22;40536;53.194;5.728;2023-04-27T07:49:44;15.40;99.90
54642;DHT22;40536;53.194;5.728;2023-04-27T07:52:13;15.90;99.90
54642;DHT22;40536;53.194;5.728;2023-04-27T07:54:39;16.20;99.90
54642;DHT22;40536;53.194;5.728;2023-04-27T07:57:08;16.20;99.90
54642;DHT22;40536;53.194;5.728;2023-04-27T07:59:36;16.40;99.40
54642;DHT22;40536;53.194;5.728;2023-04-27T08:02:01;16.70;99.90
54642;DHT22;40536;53.194;5.728;2023-04-27T08:04:36;17.30;99.90
54642;DHT22;40536;53.194;5.728;2023-04-27T08:07:02;17.50;99.90
54642;DHT22;40536;53.194;5.728;2023-04-27T08:09:28;17.90;99.90
54642;DHT22;40536;53.194;5.728;2023-04-27T08:11:53;17.80;97.70
54642;DHT22;40536;53.194;5.728;2023-04-27T08:14:20;17.80;98.20
54642;DHT22;40536;53.194;5.728;2023-04-27T08:16:46;17.20;97.20
54642;DHT22;40536;53.194;5.728;2023-04-27T08:19:11;17.70;99.50
54642;DHT22;40536;53.194;5.728;2023-04-27T08:21:37;17.70;97.40
54642;DHT22;40536;53.194;5.728;2023-04-27T08:24:04;17.40;98.00
54642;DHT22;40536;53.194;5.728;2023-04-27T08:26:33;17.70;98.80
54642;DHT22;40536;53.194;5.728;2023-04-27T08:29:00;18.10;98.00
54642;DHT22;40536;53.194;5.728;2023-04-27T08:31:26;18.60;99.10
54642;DHT22;40536;53.194;5.728;2023-04-27T08:33:53;18.50;96.30
54642;DHT22;40536;53.194;5.728;2023-04-27T08:36:21;18.20;95.90
54642;DHT22;40536;53.194;5.728;2023-04-27T08:38:51;17.70;96.60
54642;DHT22;40536;53.194;5.728;2023-04-27T08:41:20;17.80;97.10
54642;DHT22;40536;53.194;5.728;2023-04-27T08:43:50;17.30;95.60
54642;DHT22;40536;53.194;5.728;2023-04-27T08:46:19;17.30;96.60
54642;DHT22;40536;53.194;5.728;2023-04-27T08:48:48;17.30;97.10
54642;DHT22;40536;53.194;5.728;2023-04-27T08:51:15;17.40;95.70
54642;DHT22;40536;53.194;5.728;2023-04-27T08:53:50;17.50;97.00
54642;DHT22;40536;53.194;5.728;2023-04-27T08:56:17;17.30;96.50
54642;DHT22;40536;53.194;5.728;2023-04-27T08:58:43;17.10;95.90
54642;DHT22;40536;53.194;5.728;2023-04-27T09:01:08;17.30;97.40
54642;DHT22;40536;53.194;5.728;2023-04-27T09:03:36;17.40;96.20
54642;DHT22;40536;53.194;5.728;2023-04-27T09:06:03;17.00;96.20
54642;DHT22;40536;53.194;5.728;2023-04-27T09:08:46;17.20;96.40
54642;DHT22;40536;53.194;5.728;2023-04-27T09:11:13;17.20;97.70
54642;DHT22;40536;53.194;5.728;2023-04-27T09:13:40;17.40;96.50
54642;DHT22;40536;53.194;5.728;2023-04-27T09:16:11;17.60;96.10
54642;DHT22;40536;53.194;5.728;2023-04-27T09:18:41;17.60;95.90
54642;DHT22;40536;53.194;5.728;2023-04-27T09:21:06;17.50;96.00
54642;DHT22;40536;53.194;5.728;2023-04-27T09:23:34;17.50;95.40
54642;DHT22;40536;53.194;5.728;2023-04-27T09:26:02;17.50;95.90
54642;DHT22;40536;53.194;5.728;2023-04-27T09:28:29;17.70;94.90
54642;DHT22;40536;53.194;5.728;2023-04-27T09:30:58;17.70;95.60
54642;DHT22;40536;53.194;5.728;2023-04-27T09:33:25;17.90;95.50
54642;DHT22;40536;53.194;5.728;2023-04-27T09:35:51;18.20;94.60
54642;DHT22;40536;53.194;5.728;2023-04-27T09:38:19;18.20;94.00
54642;DHT22;40536;53.194;5.728;2023-04-27T09:40:45;18.50;94.20
54642;DHT22;40536;53.194;5.728;2023-04-27T09:43:11;18.30;93.90
54642;DHT22;40536;53.194;5.728;2023-04-27T09:45:37;18.40;93.70
54642;DHT22;40536;53.194;5.728;2023-04-27T09:48:04;18.20;94.20
54642;DHT22;40536;53.194;5.728;2023-04-27T09:50:37;18.90;94.80
54642;DHT22;40536;53.194;5.728;2023-04-27T09:53:10;19.00;94.50
54642;DHT22;40536;53.194;5.728;2023-04-27T09:55:43;19.50;94.20
54642;DHT22;40536;53.194;5.728;2023-04-27T10:09:23;18.80;94.90
54642;DHT22;40536;53.194;5.728;2023-04-27T10:11:53;19.30;94.00
54642;DHT22;40536;53.194;5.728;2023-04-27T10:14:23;19.00;93.20
54642;DHT22;40536;53.194;5.728;2023-04-27T10:16:57;18.90;93.70
54642;DHT22;40536;53.194;5.728;2023-04-27T10:19:23;18.90;94.10
54642;DHT22;40536;53.194;5.728;2023-04-27T10:24:31;18.40;93.20
54642;DHT22;40536;53.194;5.728;2023-04-27T10:27:03;18.80;93.50
54642;DHT22;40536;53.194;5.728;2023-04-27T10:29:38;18.80;93.70
54642;DHT22;40536;53.194;5.728;2023-04-27T10:32:06;18.50;93.00
54642;DHT22;40536;53.194;5.728;2023-04-27T10:34:33;18.60;94.00
54642;DHT22;40536;53.194;5.728;2023-04-27T10:37:06;18.20;93.90
54642;DHT22;40536;53.194;5.728;2023-04-27T10:39:38;18.00;94.20
54642;DHT22;40536;53.194;5.728;2023-04-27T10:42:05;18.10;94.50
54642;DHT22;40536;53.194;5.728;2023-04-27T10:44:32;18.60;94.60
54642;DHT22;40536;53.194;5.728;2023-04-27T10:46:59;18.50;94.60
54642;DHT22;40536;53.194;5.728;2023-04-27T10:49:29;18.80;94.10
54642;DHT22;40536;53.194;5.728;2023-04-27T10:51:59;18.90;94.70
54642;DHT22;40536;53.194;5.728;2023-04-27T10:54:29;19.00;94.80
54642;DHT22;40536;53.194;5.728;2023-04-27T10:57:04;18.90;94.00
54642;DHT22;40536;53.194;5.728;2023-04-27T10:59:29;18.70;93.20
54642;DHT22;40536;53.194;5.728;2023-04-27T11:01:55;18.70;94.10
54642;DHT22;40536;53.194;5.728;2023-04-27T11:04:21;19.10;94.50
54642;DHT22;40536;53.194;5.728;2023-04-27T11:06:46;18.80;93.00
54642;DHT22;40536;53.194;5.728;2023-04-27T11:09:13;18.70;93.10
54642;DHT22;40536;53.194;5.728;2023-04-27T11:11:49;18.30;93.60
54642;DHT22;40536;53.194;5.728;2023-04-27T11:14:19;17.30;94.30
54642;DHT22;40536;53.194;5.728;2023-04-27T11:16:46;16.80;94.10
54642;DHT22;40536;53.194;5.728;2023-04-27T11:19:12;16.60;94.70
54642;DHT22;40536;53.194;5.728;2023-04-27T11:21:38;16.40;96.00
54642;DHT22;40536;53.194;5.728;2023-04-27T11:24:05;16.00;96.40
54642;DHT22;40536;53.194;5.728;2023-04-27T11:26:31;15.40;97.50
54642;DHT22;40536;53.194;5.728;2023-04-27T11:29:06;15.30;98.00
54642;DHT22;40536;53.194;5.728;2023-04-27T11:34:08;15.00;98.40
54642;DHT22;40536;53.194;5.728;2023-04-27T11:36:34;14.90;98.50
54642;DHT22;40536;53.194;5.728;2023-04-27T11:39:00;14.80;97.50
54642;DHT22;40536;53.194;5.728;2023-04-27T11:41:33;14.90;98.30
54642;DHT22;40536;53.194;5.728;2023-04-27T11:44:04;15.30;98.60
54642;DHT22;40536;53.194;5.728;2023-04-27T11:46:30;16.20;98.50
54642;DHT22;40536;53.194;5.728;2023-04-27T11:49:03;17.50;97.70
54642;DHT22;40536;53.194;5.728;2023-04-27T11:51:30;18.20;95.90
54642;DHT22;40536;53.194;5.728;2023-04-27T11:54:01;18.30;95.80
54642;DHT22;40536;53.194;5.728;2023-04-27T11:56:36;18.90;95.30
54642;DHT22;40536;53.194;5.728;2023-04-27T11:59:03;19.70;94.40
54642;DHT22;40536;53.194;5.728;2023-04-27T12:01:31;20.20;93.30
54642;DHT22;40536;53.194;5.728;2023-04-27T12:03:57;20.20;93.50
54642;DHT22;40536;53.194;5.728;2023-04-27T12:06:24;19.90;92.70
54642;DHT22;40536;53.194;5.728;2023-04-27T12:08:50;19.80;93.20
54642;DHT22;40536;53.194;5.728;2023-04-27T12:11:16;19.50;93.20
54642;DHT22;40536;53.194;5.728;2023-04-27T12:13:41;18.80;92.70
54642;DHT22;40536;53.194;5.728;2023-04-27T12:16:07;18.20;94.10
54642;DHT22;40536;53.194;5.728;2023-04-27T12:18:33;18.30;94.60
54642;DHT22;40536;53.194;5.728;2023-04-27T12:20:58;18.40;94.20
54642;DHT22;40536;53.194;5.728;2023-04-27T12:23:24;18.30;94.10
54642;DHT22;40536;53.194;5.728;2023-04-27T12:25:50;18.10;94.10
54642;DHT22;40536;53.194;5.728;2023-04-27T12:28:16;17.90;93.80
54642;DHT22;40536;53.194;5.728;2023-04-27T12:30:43;17.70;94.00
54642;DHT22;40536;53.194;5.728;2023-04-27T12:33:09;17.60;94.00
54642;DHT22;40536;53.194;5.728;2023-04-27T12:35:36;17.30;94.20
54642;DHT22;40536;53.194;5.728;2023-04-27T12:38:02;17.00;94.40
54642;DHT22;40536;53.194;5.728;2023-04-27T12:40:30;16.90;94.70
54642;DHT22;40536;53.194;5.728;2023-04-27T12:42:55;16.80;94.60
54642;DHT22;40536;53.194;5.728;2023-04-27T12:45:21;16.80;94.90
54642;DHT22;40536;53.194;5.728;2023-04-27T12:47:47;16.70;95.30
54642;DHT22;40536;53.194;5.728;2023-04-27T12:50:12;16.80;95.50
54642;DHT22;40536;53.194;5.728;2023-04-27T12:52:40;16.70;95.90
54642;DHT22;40536;53.194;5.728;2023-04-27T12:55:05;16.60;96.10
54642;DHT22;40536;53.194;5.728;2023-04-27T12:57:32;16.50;96.20
54642;DHT22;40536;53.194;5.728;2023-04-27T12:59:58;16.60;96.30
54642;DHT22;40536;53.194;5.728;2023-04-27T13:02:25;16.70;96.20
54642;DHT22;40536;53.194;5.728;2023-04-27T13:04:51;16.60;96.00
54642;DHT22;40536;53.194;5.728;2023-04-27T13:07:17;16.50;95.00
54642;DHT22;40536;53.194;5.728;2023-04-27T13:09:43;16.30;95.90
54642;DHT22;40536;53.194;5.728;2023-04-27T13:12:09;16.30;96.30
54642;DHT22;40536;53.194;5.728;2023-04-27T13:14:34;16.20;96.90
54642;DHT22;40536;53.194;5.728;2023-04-27T13:17:00;16.30;97.20
54642;DHT22;40536;53.194;5.728;2023-04-27T13:19:27;16.20;96.50
54642;DHT22;40536;53.194;5.728;2023-04-27T13:21:52;16.30;97.00
54642;DHT22;40536;53.194;5.728;2023-04-27T13:24:18;16.20;96.60
54642;DHT22;40536;53.194;5.728;2023-04-27T13:26:44;16.10;96.50
54642;DHT22;40536;53.194;5.728;2023-04-27T13:29:09;16.20;96.90
54642;DHT22;40536;53.194;5.728;2023-04-27T13:31:35;16.20;97.20
54642;DHT22;40536;53.194;5.728;2023-04-27T13:34:01;16.20;97.50
54642;DHT22;40536;53.194;5.728;2023-04-27T13:36:29;16.10;97.40
54642;DHT22;40536;53.194;5.728;2023-04-27T13:38:55;16.10;97.20
54642;DHT22;40536;53.194;5.728;2023-04-27T13:41:21;16.00;96.70
54642;DHT22;40536;53.194;5.728;2023-04-27T13:43:46;15.80;97.40
54642;DHT22;40536;53.194;5.728;2023-04-27T13:46:13;15.70;97.20
54642;DHT22;40536;53.194;5.728;2023-04-27T13:48:39;15.40;97.00
54642;DHT22;40536;53.194;5.728;2023-04-27T13:51:05;15.30;97.40
54642;DHT22;40536;53.194;5.728;2023-04-27T13:53:31;15.30;97.70
54642;DHT22;40536;53.194;5.728;2023-04-27T13:55:57;15.40;97.90
54642;DHT22;40536;53.194;5.728;2023-04-27T13:58:25;15.50;98.10
54642;DHT22;40536;53.194;5.728;2023-04-27T14:00:51;15.40;98.00
54642;DHT22;40536;53.194;5.728;2023-04-27T14:03:17;15.40;98.20
54642;DHT22;40536;53.194;5.728;2023-04-27T14:05:43;15.30;98.00
54642;DHT22;40536;53.194;5.728;2023-04-27T14:08:10;15.30;98.30
54642;DHT22;40536;53.194;5.728;2023-04-27T14:10:36;15.30;98.50
54642;DHT22;40536;53.194;5.728;2023-04-27T14:13:03;15.40;98.70
54642;DHT22;40536;53.194;5.728;2023-04-27T14:15:28;15.40;98.70
54642;DHT22;40536;53.194;5.728;2023-04-27T14:17:54;15.40;99.20
54642;DHT22;40536;53.194;5.728;2023-04-27T14:20:20;15.50;99.30
54642;DHT22;40536;53.194;5.728;2023-04-27T14:22:47;15.60;99.10
54642;DHT22;40536;53.194;5.728;2023-04-27T14:25:13;15.50;98.40
54642;DHT22;40536;53.194;5.728;2023-04-27T14:27:39;15.50;98.50
54642;DHT22;40536;53.194;5.728;2023-04-27T14:30:05;15.60;99.10
54642;DHT22;40536;53.194;5.728;2023-04-27T14:32:31;15.60;98.10
54642;DHT22;40536;53.194;5.728;2023-04-27T14:34:56;15.60;98.60
54642;DHT22;40536;53.194;5.728;2023-04-27T14:37:24;15.70;99.10
54642;DHT22;40536;53.194;5.728;2023-04-27T14:39:49;15.90;98.90
54642;DHT22;40536;53.194;5.728;2023-04-27T14:42:15;16.00;98.70
54642;DHT22;40536;53.194;5.728;2023-04-27T14:44:41;16.10;98.80
54642;DHT22;40536;53.194;5.728;2023-04-27T14:47:06;16.20;98.90
54642;DHT22;40536;53.194;5.728;2023-04-27T14:49:32;16.10;98.60
54642;DHT22;40536;53.194;5.728;2023-04-27T14:51:58;16.10;98.60
54642;DHT22;40536;53.194;5.728;2023-04-27T14:54:27;16.10;98.50
54642;DHT22;40536;53.194;5.728;2023-04-27T14:56:53;16.10;98.40
54642;DHT22;40536;53.194;5.728;2023-04-27T14:59:19;16.10;98.50
54642;DHT22;40536;53.194;5.728;2023-04-27T15:01:46;16.00;98.10
54642;DHT22;40536;53.194;5.728;2023-04-27T15:04:12;16.00;98.00
54642;DHT22;40536;53.194;5.728;2023-04-27T15:06:37;15.90;98.30
54642;DHT22;40536;53.194;5.728;2023-04-27T15:09:04;15.70;98.80
54642;DHT22;40536;53.194;5.728;2023-04-27T15:11:30;15.50;99.00
54642;DHT22;40536;53.194;5.728;2023-04-27T15:13:56;15.30;99.00
54642;DHT22;40536;53.194;5.728;2023-04-27T15:16:22;15.10;99.10
54642;DHT22;40536;53.194;5.728;2023-04-27T15:18:47;14.90;99.30
54642;DHT22;40536;53.194;5.728;2023-04-27T15:21:13;14.80;99.90
54642;DHT22;40536;53.194;5.728;2023-04-27T15:23:39;14.80;99.90
54642;DHT22;40536;53.194;5.728;2023-04-27T15:26:07;14.80;99.90
54642;DHT22;40536;53.194;5.728;2023-04-27T15:28:34;14.70;99.90
54642;DHT22;40536;53.194;5.728;2023-04-27T15:31:00;14.60;99.90
54642;DHT22;40536;53.194;5.728;2023-04-27T15:33:26;14.40;99.90
54642;DHT22;40536;53.194;5.728;2023-04-27T15:35:52;14.30;99.90
54642;DHT22;40536;53.194;5.728;2023-04-27T15:38:18;14.20;99.90
54642;DHT22;40536;53.194;5.728;2023-04-27T15:40:44;14.10;99.90
54642;DHT22;40536;53.194;5.728;2023-04-27T15:43:10;14.10;99.90
54642;DHT22;40536;53.194;5.728;2023-04-27T15:45:36;13.90;99.90
54642;DHT22;40536;53.194;5.728;2023-04-27T15:48:02;13.80;99.90
54642;DHT22;40536;53.194;5.728;2023-04-27T15:50:28;13.60;99.90